.
WxDataArchive / Data Records for 2011-03-01
2011-02-28 March 2011 2011-03-02

Data Records for Tuesday, 01 March 2011

Time	Temp	Chill	HIndex	Humid	Dewpt	 Wind 	HiWind	WindDir	Rain 	Barom 
-----	----	-----	------	-----	-----	------	------	-------	-----	----- 
00:00	25.3	25.3	25.3	84	21.2	0	1	270	0.00	30.269 
00:05	25.3	25.3	25.3	84	21.2	0	1	270	0.00	30.269 
00:10	25.3	25.3	25.3	84	21.2	0	1	270	0.00	30.269 
00:15	25.3	25.3	25.3	84	21.2	0	1	270	0.00	30.280 
00:20	25.4	25.4	25.4	84	21.3	0	2	248	0.00	30.280 
00:25	25.4	25.4	25.4	84	21.3	0	1	248	0.00	30.280 
00:30	25.4	25.4	25.4	83	21.0	0	1	248	0.00	30.286 
00:35	25.3	25.3	25.3	83	20.9	0	1	248	0.00	30.286 
00:40	25.3	25.3	25.3	83	20.9	0	1	248	0.00	30.286 
00:45	25.3	25.3	25.3	83	20.9	0	1	248	0.00	30.288 
00:50	25.1	25.1	25.1	83	20.7	0	1	248	0.00	30.288 
00:55	25.1	25.1	25.1	83	20.7	0	1	248	0.00	30.288 
01:00	25.0	25.0	25.0	83	20.6	0	1	248	0.00	30.296 
01:05	24.8	24.8	24.8	83	20.4	0	1	248	0.00	30.296 
01:10	24.7	24.7	24.7	83	20.3	0	1	248	0.00	30.296 
01:15	24.7	24.7	24.7	83	20.3	0	1	248	0.00	30.301 
01:20	24.5	24.5	24.5	83	20.1	0	0	---	0.00	30.301 
01:25	24.4	24.4	24.4	83	20.0	0	0	---	0.00	30.301 
01:30	24.4	24.4	24.4	83	20.0	0	1	248	0.00	30.304 
01:35	24.2	24.2	24.2	83	19.8	0	1	248	0.00	30.304 
01:40	24.2	24.2	24.2	84	20.1	0	1	248	0.00	30.304 
01:45	24.1	24.1	24.1	84	20.0	0	1	248	0.00	30.317 
01:50	23.9	23.9	23.9	84	19.8	0	1	248	0.00	30.317 
01:55	23.8	23.8	23.8	84	19.7	0	0	---	0.00	30.317 
02:00	23.8	23.8	23.8	84	19.7	0	0	---	0.00	30.324 
02:05	23.6	23.6	23.6	84	19.5	0	0	---	0.00	30.324 
02:10	23.5	23.5	23.5	84	19.4	0	0	---	0.00	30.324 
02:15	23.5	23.5	23.5	84	19.4	0	0	---	0.00	30.331 
02:20	23.3	23.3	23.3	84	19.2	0	0	---	0.00	30.331 
02:25	23.2	23.2	23.2	84	19.1	0	0	---	0.00	30.331 
02:30	23.0	23.0	23.0	85	19.2	0	0	---	0.00	30.332 
02:35	23.0	23.0	23.0	85	19.2	0	0	---	0.00	30.332 
02:40	22.9	22.9	22.9	85	19.1	0	0	---	0.00	30.332 
02:45	22.9	22.9	22.9	85	19.1	0	0	---	0.00	30.334 
02:50	22.7	22.7	22.7	85	18.9	0	0	---	0.00	30.334 
02:55	22.7	22.7	22.7	85	18.9	0	0	---	0.00	30.334 
03:00	22.5	22.5	22.5	85	18.7	0	0	---	0.00	30.335 
03:05	22.2	22.2	22.2	85	18.4	0	0	---	0.00	30.335 
03:10	22.1	22.1	22.1	85	18.3	0	0	---	0.00	30.335 
03:15	21.8	21.8	21.8	85	18.0	0	0	---	0.00	30.333 
03:20	21.6	21.6	21.6	85	17.8	0	0	---	0.00	30.333 
03:25	21.4	21.4	21.4	85	17.6	0	0	---	0.00	30.333 
03:30	21.3	21.3	21.3	85	17.5	0	0	---	0.00	30.333 
03:35	21.0	21.0	21.0	85	17.2	0	0	---	0.00	30.333 
03:40	20.8	20.8	20.8	85	17.0	0	0	---	0.00	30.333 
03:45	20.5	20.5	20.5	85	16.7	0	0	---	0.00	30.335 
03:50	20.3	20.3	20.3	86	16.8	0	0	---	0.00	30.335 
03:55	20.2	20.2	20.2	86	16.7	0	0	---	0.00	30.335 
04:00	20.0	20.0	20.0	86	16.5	0	0	---	0.00	30.335 
04:05	20.0	20.0	20.0	87	16.8	0	0	---	0.00	30.335 
04:10	19.9	19.9	19.9	87	16.7	0	0	---	0.00	30.335 
04:15	19.7	19.7	19.7	87	16.5	0	0	---	0.00	30.334 
04:20	19.7	19.7	19.7	87	16.5	0	0	---	0.00	30.334 
04:25	19.5	19.5	19.5	87	16.3	0	0	---	0.00	30.334 
04:30	19.4	19.4	19.4	87	16.2	0	0	---	0.00	30.340 
04:35	19.2	19.2	19.2	87	16.0	0	0	---	0.00	30.340 
04:40	19.2	19.2	19.2	88	16.2	0	0	---	0.00	30.340 
04:45	19.2	19.2	19.2	88	16.2	0	0	---	0.00	30.340 
04:50	19.1	19.1	19.1	88	16.1	0	0	---	0.00	30.340 
04:55	19.1	19.1	19.1	88	16.1	0	0	---	0.00	30.340 
05:00	19.1	19.1	19.1	88	16.1	0	0	---	0.00	30.338 
05:05	19.1	19.1	19.1	88	16.1	0	0	---	0.00	30.338 
05:10	18.9	18.9	18.9	88	15.9	0	0	---	0.00	30.338 
05:15	18.9	18.9	18.9	88	15.9	0	0	---	0.00	30.338 
05:20	18.8	18.8	18.8	88	15.8	0	0	---	0.00	30.338 
05:25	18.6	18.6	18.6	88	15.6	0	0	---	0.00	30.338 
05:30	18.4	18.4	18.4	88	15.5	0	0	---	0.00	30.336 
05:35	18.4	18.4	18.4	88	15.5	0	0	---	0.00	30.336 
05:40	18.3	18.3	18.3	88	15.4	0	0	---	0.00	30.336 
05:45	18.3	18.3	18.3	89	15.6	0	0	---	0.00	30.335 
05:50	18.4	18.4	18.4	89	15.7	0	0	---	0.00	30.335 
05:55	18.3	18.3	18.3	88	15.4	0	0	---	0.00	30.335 
06:00	18.3	18.3	18.3	88	15.4	0	0	---	0.00	30.332 
06:05	18.1	18.1	18.1	88	15.2	0	0	---	0.00	30.332 
06:10	18.0	18.0	18.0	88	15.1	0	0	---	0.00	30.332 
06:15	18.0	18.0	18.0	89	15.3	0	0	---	0.00	30.336 
06:20	18.0	18.0	18.0	89	15.3	0	0	---	0.00	30.336 
06:25	18.0	18.0	18.0	89	15.3	0	0	---	0.00	30.336 
06:30	17.8	17.8	17.8	89	15.1	0	0	---	0.00	30.340 
06:35	17.8	17.8	17.8	89	15.1	0	0	---	0.00	30.340 
06:40	17.7	17.7	17.7	89	15.0	0	0	---	0.00	30.340 
06:45	17.7	17.7	17.7	89	15.0	0	0	---	0.00	30.339 
06:50	17.5	17.5	17.5	89	14.8	0	2	248	0.00	30.339 
06:55	17.7	17.7	17.7	89	15.0	0	1	248	0.00	30.339 
07:00	17.8	17.8	17.8	89	15.1	0	0	---	0.00	30.328 
07:05	18.1	18.1	18.1	90	15.7	0	0	---	0.00	30.328 
07:10	18.3	18.3	18.3	89	15.6	0	0	---	0.00	30.328 
07:15	18.3	18.3	18.3	89	15.6	0	0	---	0.00	30.328 
07:20	18.3	18.3	18.3	89	15.6	0	0	---	0.00	30.328 
07:25	18.1	18.1	18.1	89	15.4	0	0	---	0.00	30.328 
07:30	18.1	18.1	18.1	89	15.4	0	0	---	0.00	30.336 
07:35	18.1	18.1	18.1	89	15.4	0	0	---	0.00	30.336 
07:40	18.4	18.4	18.4	90	16.0	0	0	---	0.00	30.336 
07:45	18.8	18.8	18.8	90	16.4	0	0	---	0.00	30.346 
07:50	19.1	19.1	19.1	90	16.7	0	0	---	0.00	30.346 
07:55	19.4	19.4	19.4	90	17.0	0	0	---	0.00	30.346 
08:00	19.7	19.7	19.7	90	17.3	0	0	---	0.00	30.355 
08:05	20.5	20.5	20.5	91	18.3	0	0	---	0.00	30.355 
08:10	21.3	21.3	21.3	92	19.3	0	0	---	0.00	30.355 
08:15	22.1	22.1	22.1	92	20.1	0	0	---	0.00	30.358 
08:20	22.9	22.9	22.9	92	20.9	0	0	---	0.00	30.358 
08:25	23.3	23.3	23.3	92	21.3	0	0	---	0.00	30.358 
08:30	23.9	23.9	23.9	92	21.9	0	0	---	0.00	30.365 
08:35	24.5	24.5	24.5	92	22.5	0	0	---	0.00	30.365 
08:40	24.8	24.8	24.8	91	22.6	0	1	112	0.00	30.365 
08:45	25.1	25.1	25.1	91	22.9	0	0	---	0.00	30.362 
08:50	25.7	25.7	25.7	91	23.4	0	1	112	0.00	30.362 
08:55	26.4	26.4	26.4	90	23.9	0	1	112	0.00	30.362 
09:00	26.7	26.7	26.7	88	23.6	0	2	112	0.00	30.361 
09:05	27.2	27.2	27.2	87	23.9	0	1	112	0.00	30.361 
09:10	27.5	27.5	27.5	86	23.9	0	2	112	0.00	30.361 
09:15	27.9	27.9	27.9	85	24.0	0	2	112	0.00	30.351 
09:20	28.4	28.4	28.4	84	24.2	0	2	112	0.00	30.351 
09:25	29.0	29.0	29.0	83	24.5	1	2	112	0.00	30.351 
09:30	29.4	29.4	29.4	80	24.0	1	5	90	0.00	30.335 
09:35	29.7	29.7	29.7	80	24.3	0	2	22	0.00	30.335 
09:40	30.3	30.3	30.3	79	24.6	1	3	68	0.00	30.335 
09:45	30.7	30.7	30.7	77	24.4	1	3	68	0.00	30.347 
09:50	31.2	31.2	31.2	76	24.5	0	3	68	0.00	30.347 
09:55	31.3	31.3	31.3	75	24.3	1	3	248	0.00	30.347 
10:00	31.8	31.8	31.8	74	24.5	0	2	248	0.00	30.341 
10:05	32.1	32.1	32.1	73	24.4	1	4	270	0.00	30.341 
10:10	32.8	32.8	32.8	73	25.1	1	2	90	0.00	30.341 
10:15	33.2	33.2	33.2	71	24.8	1	4	90	0.00	30.336 
10:20	33.5	33.5	33.5	70	24.8	1	3	90	0.00	30.336 
10:25	33.8	33.8	33.8	70	25.1	1	6	90	0.00	30.336 
10:30	33.8	33.8	33.8	70	25.1	1	6	90	0.00	30.329 
10:35	33.8	33.8	33.8	70	25.1	1	4	270	0.00	30.329 
10:40	34.1	34.1	34.1	70	25.4	0	3	270	0.00	30.329 
10:45	34.4	34.4	34.4	68	24.9	1	3	270	0.00	30.333 
10:50	34.7	34.7	34.7	67	24.9	1	6	248	0.00	30.333 
10:55	34.9	34.9	34.9	65	24.3	1	4	248	0.00	30.333 
11:00	34.7	34.7	34.7	64	23.8	2	5	248	0.00	30.330 
11:05	34.6	34.6	34.6	63	23.3	2	6	248	0.00	30.330 
11:10	34.6	34.6	34.6	66	24.4	2	7	248	0.00	30.330 
11:15	34.9	34.9	34.9	65	24.3	1	5	270	0.00	30.340 
11:20	35.6	35.6	35.6	67	25.7	1	3	270	0.00	30.340 
11:25	35.8	35.8	35.8	65	25.2	2	5	248	0.00	30.340 
11:30	35.8	35.8	35.8	65	25.2	2	7	248	0.00	30.339 
11:35	35.9	35.9	35.9	65	25.3	1	4	248	0.00	30.339 
11:40	36.5	36.5	36.5	67	26.6	1	5	90	0.00	30.339 
11:45	36.6	36.6	36.6	63	25.2	2	5	248	0.00	30.328 
11:50	36.8	36.8	36.8	63	25.4	2	4	248	0.00	30.328 
11:55	36.5	36.5	36.5	61	24.3	3	7	248	0.00	30.328 
12:00	36.6	36.6	36.6	64	25.6	1	4	248	0.00	30.321 
12:05	37.0	37.0	37.0	62	25.2	2	6	90	0.00	30.321 
12:10	37.3	37.3	37.3	62	25.5	2	6	90	0.00	30.321 
12:15	37.3	37.3	37.3	65	26.6	1	4	270	0.00	30.309 
12:20	37.6	37.6	37.6	63	26.2	1	6	248	0.00	30.309 
12:25	37.6	37.6	37.6	63	26.2	1	5	248	0.00	30.309 
12:30	37.6	37.6	37.6	62	25.8	2	4	90	0.00	30.305 
12:35	37.8	37.8	37.8	62	26.0	1	5	248	0.00	30.305 
12:40	38.2	38.2	38.2	64	27.1	1	4	225	0.00	30.305 
12:45	38.0	38.0	38.0	62	26.2	1	4	248	0.00	30.296 
12:50	38.0	38.0	38.0	62	26.2	2	6	248	0.00	30.296 
12:55	38.5	38.5	38.5	62	26.6	2	7	248	0.00	30.296 
13:00	38.5	38.5	38.5	59	25.4	2	6	248	0.00	30.290 
13:05	38.6	38.6	38.6	60	25.9	1	4	248	0.00	30.290 
13:10	38.6	38.6	38.6	61	26.3	3	6	248	0.00	30.290 
13:15	38.8	38.8	38.8	62	26.9	1	4	90	0.00	30.281 
13:20	38.9	38.9	38.9	62	27.0	2	6	248	0.00	30.281 
13:25	39.2	39.2	39.2	62	27.3	2	9	90	0.00	30.281 
13:30	39.3	39.3	39.3	64	28.2	1	5	90	0.00	30.273 
13:35	39.5	39.5	39.5	63	28.0	1	6	248	0.00	30.273 
13:40	39.5	39.5	39.5	62	27.6	2	9	248	0.00	30.273 
13:45	39.6	39.6	39.6	62	27.7	2	4	292	0.00	30.260 
13:50	39.8	39.8	39.8	63	28.2	1	4	248	0.00	30.260 
13:55	39.9	39.9	39.9	64	28.7	1	4	248	0.00	30.260 
14:00	40.1	40.1	40.1	62	28.1	2	4	248	0.00	30.258 
14:05	40.1	40.1	40.1	62	28.1	3	6	248	0.00	30.258 
14:10	40.2	40.2	40.2	62	28.2	1	5	248	0.00	30.258 
14:15	40.3	40.3	40.3	62	28.3	2	6	270	0.00	30.251 
14:20	40.5	40.5	40.5	62	28.5	2	6	90	0.00	30.251 
14:25	40.8	40.8	40.8	60	28.0	1	5	270	0.00	30.251 
14:30	40.9	40.9	40.9	57	26.9	2	4	248	0.00	30.244 
14:35	41.1	41.1	41.1	58	27.5	2	6	248	0.00	30.244 
14:40	40.9	40.9	40.9	58	27.3	3	6	248	0.00	30.244 
14:45	41.1	41.1	41.1	61	28.7	1	5	248	0.00	30.243 
14:50	41.2	41.2	41.2	58	27.6	3	7	248	0.00	30.243 
14:55	41.2	41.2	41.2	57	27.1	2	6	270	0.00	30.243 
15:00	41.5	41.5	41.5	58	27.8	2	7	248	0.00	30.234 
15:05	41.8	41.8	41.8	59	28.5	2	5	248	0.00	30.234 
15:10	42.1	42.1	42.1	58	28.4	2	5	248	0.00	30.234 
15:15	42.3	42.3	42.3	55	27.3	2	5	270	0.00	30.232 
15:20	42.9	42.9	42.9	57	28.7	1	3	248	0.00	30.232 
15:25	42.8	42.8	42.8	56	28.2	2	7	248	0.00	30.232 
15:30	42.8	42.8	42.8	56	28.2	2	5	248	0.00	30.230 
15:35	43.1	43.1	43.1	57	28.9	1	4	248	0.00	30.230 
15:40	42.9	42.9	42.9	55	27.9	2	6	248	0.00	30.230 
15:45	42.8	42.8	42.8	56	28.2	3	5	248	0.00	30.222 
15:50	42.6	42.6	42.6	58	28.9	2	6	225	0.00	30.222 
15:55	42.5	42.5	42.5	57	28.4	2	6	248	0.00	30.222 
16:00	42.3	42.3	42.3	56	27.7	2	10	270	0.00	30.214 
16:05	42.5	42.5	42.5	56	27.9	1	4	248	0.00	30.214 
16:10	42.6	42.6	42.6	58	28.9	1	3	270	0.00	30.214 
16:15	42.6	42.6	42.6	56	28.0	1	4	270	0.00	30.208 
16:20	42.8	42.8	42.8	54	27.3	2	6	248	0.00	30.208 
16:25	42.8	42.8	42.8	55	27.8	2	6	248	0.00	30.208 
16:30	42.8	42.8	42.8	55	27.8	1	4	248	0.00	30.201 
16:35	42.9	42.9	42.9	54	27.4	2	4	248	0.00	30.201 
16:40	42.9	42.9	42.9	55	27.9	1	4	248	0.00	30.201 
16:45	42.9	42.9	42.9	55	27.9	2	5	248	0.00	30.199 
16:50	43.1	43.1	43.1	55	28.0	2	6	270	0.00	30.199 
16:55	43.1	43.1	43.1	54	27.6	1	5	248	0.00	30.199 
17:00	42.8	42.8	42.8	54	27.3	2	5	248	0.00	30.197 
17:05	42.5	42.5	42.5	55	27.5	1	5	248	0.00	30.197 
17:10	42.3	42.3	42.3	56	27.7	1	3	248	0.00	30.197 
17:15	42.2	42.2	42.2	57	28.1	1	4	248	0.00	30.190 
17:20	42.1	42.1	42.1	58	28.4	1	3	292	0.00	30.190 
17:25	41.9	41.9	41.9	58	28.2	2	6	292	0.00	30.190 
17:30	42.1	42.1	42.1	58	28.4	2	4	248	0.00	30.184 
17:35	42.1	42.1	42.1	57	28.0	1	6	248	0.00	30.184 
17:40	41.9	41.9	41.9	58	28.2	1	5	270	0.00	30.184 
17:45	41.9	41.9	41.9	58	28.2	1	4	248	0.00	30.183 
17:50	41.8	41.8	41.8	59	28.5	1	5	248	0.00	30.183 
17:55	41.8	41.8	41.8	59	28.5	1	3	248	0.00	30.183 
18:00	41.6	41.6	41.6	58	27.9	2	5	248	0.00	30.180 
18:05	41.5	41.5	41.5	59	28.3	2	5	225	0.00	30.180 
18:10	41.3	41.3	41.3	60	28.5	1	4	248	0.00	30.180 
18:15	41.2	41.2	41.2	61	28.8	1	3	248	0.00	30.183 
18:20	41.1	41.1	41.1	62	29.1	1	3	248	0.00	30.183 
18:25	40.8	40.8	40.8	63	29.2	1	9	248	0.00	30.183 
18:30	40.6	40.6	40.6	64	29.4	1	4	225	0.00	30.184 
18:35	40.3	40.3	40.3	65	29.5	1	4	248	0.00	30.184 
18:40	40.1	40.1	40.1	65	29.3	0	2	248	0.00	30.184 
18:45	39.9	39.9	39.9	66	29.5	0	3	248	0.00	30.181 
18:50	39.8	39.8	39.8	67	29.8	0	3	248	0.00	30.181 
18:55	39.5	39.5	39.5	67	29.5	0	1	248	0.00	30.181 
19:00	39.3	39.3	39.3	68	29.6	0	2	248	0.00	30.185 
19:05	39.1	39.1	39.1	69	29.8	0	1	248	0.00	30.185 
19:10	38.9	38.9	38.9	69	29.6	0	1	248	0.00	30.185 
19:15	38.8	38.8	38.8	70	29.9	0	2	248	0.00	30.173 
19:20	38.8	38.8	38.8	70	29.9	0	1	248	0.00	30.173 
19:25	38.6	38.6	38.6	71	30.0	0	2	248	0.00	30.173 
19:30	38.5	38.5	38.5	71	29.9	0	2	248	0.00	30.170 
19:35	38.3	38.3	38.3	72	30.1	0	2	112	0.00	30.170 
19:40	38.3	38.3	38.3	72	30.1	1	3	270	0.00	30.170 
19:45	38.2	38.2	38.2	72	30.0	0	3	248	0.00	30.168 
19:50	38.2	38.2	38.2	72	30.0	0	3	248	0.00	30.168 
19:55	38.2	38.2	38.2	72	30.0	0	3	225	0.00	30.168 
20:00	38.0	38.0	38.0	73	30.1	1	3	248	0.00	30.159 
20:05	38.0	38.0	38.0	73	30.1	1	4	248	0.00	30.159 
20:10	37.9	37.9	37.9	73	30.0	1	2	248	0.00	30.159 
20:15	37.9	37.9	37.9	73	30.0	1	3	248	0.00	30.150 
20:20	37.9	37.9	37.9	73	30.0	1	4	248	0.00	30.150 
20:25	37.9	37.9	37.9	73	30.0	1	2	248	0.00	30.150 
20:30	37.9	37.9	37.9	73	30.0	0	2	248	0.00	30.154 
20:35	37.8	37.8	37.8	73	29.9	0	1	248	0.00	30.154 
20:40	37.8	37.8	37.8	73	29.9	0	2	248	0.00	30.154 
20:45	37.8	37.8	37.8	73	29.9	0	3	248	0.00	30.152 
20:50	37.8	37.8	37.8	73	29.9	1	3	248	0.00	30.152 
20:55	37.6	37.6	37.6	73	29.7	0	2	248	0.00	30.152 
21:00	37.5	37.5	37.5	72	29.3	0	3	248	0.00	30.152 
21:05	37.5	37.5	37.5	73	29.6	1	4	248	0.00	30.152 
21:10	37.6	37.6	37.6	73	29.7	1	4	248	0.00	30.152 
21:15	37.8	37.8	37.8	72	29.6	1	3	248	0.00	30.150 
21:20	37.6	37.6	37.6	72	29.4	0	2	248	0.00	30.150 
21:25	37.6	37.6	37.6	72	29.4	0	3	248	0.00	30.150 
21:30	37.5	37.5	37.5	71	29.0	0	2	248	0.00	30.157 
21:35	37.5	37.5	37.5	72	29.3	0	1	248	0.00	30.157 
21:40	37.5	37.5	37.5	71	29.0	0	2	248	0.00	30.157 
21:45	37.3	37.3	37.3	71	28.8	0	1	248	0.00	30.172 
21:50	37.2	37.2	37.2	71	28.7	0	0	---	0.00	30.172 
21:55	37.0	37.0	37.0	72	28.8	0	0	---	0.00	30.172 
22:00	36.9	36.9	36.9	72	28.7	0	0	---	0.00	30.177 
22:05	36.6	36.6	36.6	72	28.4	0	0	---	0.00	30.177 
22:10	36.5	36.5	36.5	72	28.3	0	0	---	0.00	30.177 
22:15	36.2	36.2	36.2	73	28.4	0	0	---	0.00	30.174 
22:20	36.0	36.0	36.0	73	28.2	0	1	248	0.00	30.174 
22:25	35.9	35.9	35.9	74	28.4	0	2	248	0.00	30.174 
22:30	35.9	35.9	35.9	74	28.4	0	3	248	0.00	30.169 
22:35	36.0	36.0	36.0	75	28.9	1	3	248	0.00	30.169 
22:40	36.0	36.0	36.0	75	28.9	1	3	248	0.00	30.169 
22:45	36.2	36.2	36.2	75	29.1	2	4	248	0.00	30.163 
22:50	36.3	36.3	36.3	74	28.8	2	5	248	0.00	30.163 
22:55	36.6	36.6	36.6	73	28.8	2	8	248	0.00	30.163 
23:00	36.9	36.9	36.9	73	29.1	2	4	248	0.00	30.167 
23:05	36.9	36.9	36.9	72	28.7	2	3	248	0.00	30.167 
23:10	37.0	37.0	37.0	71	28.5	2	5	248	0.00	30.167 
23:15	37.2	37.2	37.2	71	28.7	2	4	248	0.00	30.164 
23:20	37.2	37.2	37.2	70	28.3	2	5	248	0.00	30.164 
23:25	37.2	37.2	37.2	70	28.3	2	5	248	0.00	30.164 
23:30	37.2	37.2	37.2	70	28.3	2	4	248	0.00	30.161 
23:35	37.2	37.2	37.2	70	28.3	2	4	270	0.00	30.161 
23:40	37.2	37.2	37.2	69	28.0	2	6	248	0.00	30.161 
23:45	37.2	37.2	37.2	69	28.0	2	6	248	0.00	30.158 
23:50	37.3	37.3	37.3	69	28.1	3	7	248	0.00	30.158 
23:55	37.5	37.5	37.5	69	28.3	2	4	248	0.00	30.158 

CoCoRaHS
IN-AL-39
A2 Web Hosting
Creative Commons License
GoDaddy
search engine by freefind advanced

loaded 2018-11-14 03:33:36 • last modified 2010-11-18 10:43:29
Privacy PolicyDisclaimer
• wx.awcolley.com is powered by PmWiki v.2002016 •
• all content (unless otherwise noted) © 2018 A W Colley